ELNO2: N. Canadian River, El Reno, OK

Data processed at Fri Mar 09 2018 23:24


All information presented herein is the property of the government of the United States of America and may be revised or deleted at any time without prior notice.
Dissemination of this information without the expressed written consent of the Public Affairs Office, Tulsa District U.S. Army Corps of Engineers is strictly prohibited.
These data are gathered electronically and, as presented, have not undergone any form of quality control. These data are not guaranteed to be valid or correct.
Go to home page.
Go to station list.

Upstream stations:

Downstream station:
Previous Day
Next Day
Current Day
    
SHEF ID:       ELNO2     North Canadian River near El Ren
STATION TYPE:  

               PRECIP     STAGE  STAGE(2)  RIV-FLOW  WTR-TEMP   CONDUCT  BAT-LOAD
                   in        ft        ft       cfs         F   umho/cm      volt
              Ccp-Rev   Ccp-Rev   Ccp-Rev   Ccp-Rev   Ccp-Rev   Ccp-Rev   Ccp-Rev
(US/Central)
03/07 00:00      0.00      3.59      ----        39     49.77      1467     12.65
03/07 01:00      0.00      3.58      ----        38     48.94      1470     12.57
03/07 02:00      0.00      3.58      ----        38     48.11      1473     12.57
03/07 03:00      0.00      3.58      ----        38     47.17      1473     12.57
03/07 04:00      0.00      3.58      ----        38     46.15      1476     12.49
03/07 05:00      0.00      3.58      ----        38     45.30      1478     12.49
03/07 06:00      0.00      3.58      ----        38     44.64      1481     12.41
03/07 07:00      0.00      3.58      ----        38     44.02      1483     12.41
03/07 08:00      0.00      3.58      ----        38     43.56      1485     12.49
03/07 09:00      0.00      3.60      ----        40     43.56      1485     13.60
03/07 10:00      0.00      3.61      ----        41     44.80      1483     13.60
03/07 11:00      0.00      3.60      ----        40     46.98      1478     13.68
03/07 12:00      0.00      3.61      ----        41     49.42      1477     13.76
03/07 13:00      0.00      3.60      ----        40     51.71      1474     13.76
03/07 14:00      0.00      3.59      ----        39     53.35      1471     13.76
03/07 15:00      0.00      3.59      ----        39     54.34      1468     13.76
03/07 16:00      0.00      3.59      ----        39     54.82      1463     13.60
03/07 17:00      0.00      3.60      ----        40     54.70      1460     13.53
03/07 18:00      0.00      3.59      ----        39     53.85      1461     13.37
03/07 19:00      0.00      3.59      ----        39     53.04      1461     12.97
03/07 20:00      0.00      3.58      ----        38     52.57      1466     12.81
03/07 21:00      0.00      3.58      ----        38     52.21      1466     12.73
03/07 22:00      0.00      3.57      ----        37     51.60      1468     12.65
03/07 23:00      0.00      3.57      ----        37     50.90      1472     12.65